Disclaimer

Please do not use the information listed here in-flight or in-navigation, as they are not provided to us by the airports but are provided by volunteers, so they might be outdated.

Search


Regions


Airport information page

Radio informations:
Tower (TWR) - 118.3 MHz
Approach (APP) - 119.7 MHz

Airport informations:
Latitude: 04° 40' 27.63" S
Longitude: 055° 31' 18.62" E
Elevation: 10 feet - 3 meters
Operating hours: N/A
Operating agency: Civil government, landing fees and diplomatic clearance may be required
Timezone: UTC+4
Fuel: Jet A1, without icing nhibitor.

100/130 MIL Spec, low lead, aviation gasoline (BLUE)

Runway information:
13/31 - 9800 x 151 feet< - >2987 x 46 meters

Recent METARs:
FSIA 160100Z 27017KT 9999 FEW018 28/22 Q1010 NOSIG
FSIA 160200Z 28016G27KT 250V310 9999 FEW012 FEW020CB 27/23 Q1011 BECMG FEW018CB BKN019
FSIA 160200Z 28016G27KT 250V310 9999 FEW012 FEW020CB 27/23 Q1011 BECMG FEW018CB BKN019

Airport on the map: